createdAt,value
2019-04-30T00:00:57.053Z,15.6
2019-04-30T00:06:02.162Z,17.6
2019-04-30T00:11:15.824Z,16.7
2019-04-30T00:16:15.322Z,16
2019-04-30T00:21:20.501Z,16.2
2019-04-30T00:26:25.628Z,15.8
2019-04-30T00:31:30.919Z,17.1
2019-04-30T00:36:37.851Z,18.6
2019-04-30T00:41:43.974Z,15.8
2019-04-30T00:46:52.278Z,15.1
2019-04-30T00:51:58.243Z,14.2
2019-04-30T00:57:04.192Z,14.8
2019-04-30T01:02:02.184Z,16
2019-04-30T01:07:08.839Z,15.1
2019-04-30T01:12:17.252Z,16.3
2019-04-30T01:17:16.482Z,16.8
2019-04-30T01:22:28.003Z,18.1
2019-04-30T01:27:28.379Z,18
2019-04-30T01:32:33.583Z,17.2
2019-04-30T01:37:38.782Z,18.6
2019-04-30T01:42:48.418Z,17.9
2019-04-30T01:47:46.689Z,16.5
2019-04-30T01:52:54.040Z,17.7
2019-04-30T01:57:59.246Z,16.8
2019-04-30T02:03:04.572Z,15.9
2019-04-30T02:08:09.680Z,17.7
2019-04-30T02:13:14.890Z,17.6
2019-04-30T02:18:21.856Z,18
2019-04-30T02:23:27.020Z,18.3
2019-04-30T02:28:34.091Z,19.2
2019-04-30T02:33:40.425Z,19.5
2019-04-30T02:38:45.878Z,18.5
2019-04-30T02:43:54.123Z,18.2
2019-04-30T02:48:59.940Z,17.3
2019-04-30T02:54:05.405Z,18.3
2019-04-30T02:59:13.455Z,18.6
2019-04-30T03:04:19.579Z,17.4
2019-04-30T03:09:25.244Z,16.3
2019-04-30T03:14:32.601Z,16.3
2019-04-30T03:19:40.096Z,18.5
2019-04-30T03:24:45.798Z,19.4
2019-04-30T03:29:53.943Z,19.7
2019-04-30T03:35:03.038Z,21.4
2019-04-30T03:40:10.260Z,22.7
2019-04-30T03:45:20.395Z,20
2019-04-30T03:50:26.122Z,17.2
2019-04-30T03:55:30.180Z,17.5
2019-04-30T04:00:35.131Z,18.5
2019-04-30T04:05:35.165Z,20.4
2019-04-30T04:10:42.760Z,19.1
2019-04-30T04:15:49.875Z,20.6
2019-04-30T04:21:08.539Z,22
2019-04-30T04:26:04.224Z,22.9
2019-04-30T04:31:11.906Z,23.2
2019-04-30T04:36:16.936Z,21.5
2019-04-30T04:41:24.662Z,23.6
2019-04-30T04:46:32.276Z,19.6
2019-04-30T04:51:41.147Z,20.2
2019-04-30T04:56:39.843Z,19.7
2019-04-30T05:01:45.213Z,20.7
2019-04-30T05:06:52.387Z,20.8
2019-04-30T05:11:58.559Z,20.1
2019-04-30T05:17:03.764Z,19.8
2019-04-30T05:22:09.209Z,20.4
2019-04-30T05:27:14.760Z,19.1
2019-04-30T05:32:20.351Z,20
2019-04-30T05:37:25.609Z,19.3
2019-04-30T05:42:33.102Z,22.1
2019-04-30T05:47:38.848Z,19.6
2019-04-30T05:52:44.636Z,25
2019-04-30T05:57:56.311Z,18.5
2019-04-30T06:02:55.965Z,19.1
2019-04-30T06:08:02.862Z,18.5
2019-04-30T06:13:09.173Z,27.8
2019-04-30T06:18:13.943Z,20.1
2019-04-30T06:23:21.432Z,19.7
2019-04-30T06:28:26.475Z,18.4
2019-04-30T06:33:33.896Z,19.3
2019-04-30T06:38:42.571Z,19
2019-04-30T06:43:48.791Z,20.6
2019-04-30T06:48:54.202Z,19.5
2019-04-30T06:53:59.628Z,19.3
2019-04-30T06:59:04.656Z,20
2019-04-30T07:04:10.436Z,23.3
2019-04-30T07:09:15.589Z,19.4
2019-04-30T07:14:22.425Z,18.7
2019-04-30T07:19:32.745Z,17.6
2019-04-30T07:24:32.492Z,15.2
2019-04-30T07:29:39.189Z,13.6
2019-04-30T07:34:44.713Z,13.8
2019-04-30T07:39:52.311Z,15.8
2019-04-30T07:45:00.401Z,12.8
2019-04-30T07:50:07.261Z,13.1
2019-04-30T07:55:06.676Z,11.4
2019-04-30T08:10:26.784Z,12.4
2019-04-30T08:15:29.362Z,10.5
2019-04-30T08:20:33.784Z,13.7
2019-04-30T08:25:39.056Z,12
2019-04-30T08:30:44.458Z,9.6
2019-04-30T08:35:51.641Z,6.5
2019-04-30T08:40:58.701Z,6.1
2019-04-30T08:46:05.754Z,11
2019-04-30T08:51:09.568Z,6.3
2019-04-30T08:56:10.073Z,8.1
2019-04-30T09:01:15.246Z,6.7
2019-04-30T09:06:23.221Z,4.7
2019-04-30T09:11:35.441Z,4.9
2019-04-30T09:16:29.507Z,7.2
2019-04-30T09:21:34.871Z,5.6
2019-04-30T09:26:43.484Z,3.5
2019-04-30T09:31:49.277Z,3.3
2019-04-30T09:36:54.693Z,3.5
2019-04-30T09:42:00.971Z,5.4
2019-04-30T09:47:06.381Z,15.4
2019-04-30T09:52:13.516Z,12.9
2019-04-30T09:57:19.267Z,8.5
2019-04-30T10:02:24.699Z,8
2019-04-30T10:07:31.832Z,8.9
2019-04-30T10:12:35.572Z,18.5
2019-04-30T10:17:42.028Z,5.2
2019-04-30T10:22:47.193Z,3.5
2019-04-30T10:27:54.016Z,4.1
2019-04-30T10:32:59.634Z,4.1
2019-04-30T10:38:04.539Z,3.5
2019-04-30T10:43:09.659Z,3.2
2019-04-30T10:48:14.845Z,4
2019-04-30T10:53:20.043Z,5.1
2019-04-30T10:58:23.434Z,16.3
2019-04-30T11:03:29.102Z,7.3
2019-04-30T11:08:34.453Z,10.9
2019-04-30T11:13:39.663Z,8.4
2019-04-30T11:18:44.910Z,10.1
2019-04-30T11:23:51.386Z,8.3
2019-04-30T11:28:57.640Z,14.1
2019-04-30T11:34:04.109Z,9.4
2019-04-30T11:39:09.353Z,9.1
2019-04-30T11:44:22.033Z,4.7
2019-04-30T11:49:15.983Z,21.1
2019-04-30T11:54:20.914Z,7.6
2019-04-30T11:59:25.869Z,5.7
2019-04-30T12:04:33.354Z,6
2019-04-30T12:09:38.618Z,7.7
2019-04-30T12:14:42.339Z,8.8
2019-04-30T12:19:48.816Z,13.2
2019-04-30T12:25:02.459Z,8.8
2019-04-30T12:29:59.403Z,20.7
2019-04-30T12:35:04.903Z,13.5
2019-04-30T12:40:09.496Z,21.2
2019-04-30T12:45:15.915Z,26.7
2019-04-30T12:50:22.824Z,15.5
2019-04-30T12:55:25.635Z,10.9
2019-04-30T13:00:32.852Z,43.6
2019-04-30T13:05:39.570Z,8.4
2019-04-30T13:10:45.513Z,10.6
2019-04-30T13:15:53.854Z,10.9
2019-04-30T13:20:59.006Z,11.1
2019-04-30T13:26:04.824Z,11.8
2019-04-30T13:31:12.012Z,11.9
2019-04-30T13:36:17.277Z,8.2
2019-04-30T13:41:26.588Z,30.3
2019-04-30T13:46:33.280Z,9.3
2019-04-30T13:51:38.392Z,10
2019-04-30T13:56:45.726Z,10.1
2019-04-30T14:01:52.992Z,14
2019-04-30T14:06:58.059Z,11.2
2019-04-30T14:12:03.123Z,11.8
2019-04-30T14:17:09.194Z,13.2
2019-04-30T14:22:14.514Z,14.5
2019-04-30T14:27:19.604Z,12.3
2019-04-30T14:32:24.550Z,12.2
2019-04-30T14:37:31.814Z,13.5
2019-04-30T14:42:37.255Z,14.3
2019-04-30T14:47:45.128Z,11.1
2019-04-30T14:52:47.240Z,11.4
2019-04-30T14:57:52.041Z,12.7
2019-04-30T15:02:58.562Z,13.7
2019-04-30T15:08:08.472Z,11.8
2019-04-30T15:13:14.966Z,13.8
2019-04-30T15:18:22.366Z,11.5
2019-04-30T15:23:27.405Z,6.5
2019-04-30T15:28:32.689Z,9.5
2019-04-30T15:33:38.043Z,5.7
2019-04-30T15:38:45.177Z,6.3
2019-04-30T15:43:50.346Z,4.5
2019-04-30T15:48:55.597Z,6.3
2019-04-30T15:54:00.650Z,7.6
2019-04-30T15:59:05.777Z,8
2019-04-30T16:04:15.461Z,10.9
2019-04-30T16:09:22.393Z,6.4
2019-04-30T16:14:29.117Z,13
2019-04-30T16:19:35.004Z,10
2019-04-30T16:24:40.129Z,11
2019-04-30T16:29:47.420Z,11.4
2019-04-30T16:34:54.325Z,11
2019-04-30T16:39:59.384Z,8.3
2019-04-30T16:45:02.817Z,7.4
2019-04-30T16:50:08.955Z,7.8
2019-04-30T16:55:15.135Z,11.1
2019-04-30T17:00:23.793Z,9.3
2019-04-30T17:05:29.436Z,11.3
2019-04-30T17:10:39.204Z,9.4
2019-04-30T17:15:44.842Z,9
2019-04-30T17:20:52.193Z,9
2019-04-30T17:25:57.360Z,7.7
2019-04-30T17:31:02.698Z,8.4
2019-04-30T17:36:08.322Z,8.3
2019-04-30T17:41:11.504Z,9.2
2019-04-30T17:46:20.161Z,13.7
2019-04-30T17:51:25.708Z,14.4
2019-04-30T17:56:33.731Z,13.4
2019-04-30T18:01:40.088Z,12.2
2019-04-30T18:06:40.211Z,11.6
2019-04-30T18:11:45.169Z,13.4
2019-04-30T18:16:52.191Z,17.7
2019-04-30T18:22:00.112Z,11.5
2019-04-30T18:27:05.185Z,9.4
2019-04-30T18:32:10.548Z,9.3
2019-04-30T18:37:18.880Z,14.2
2019-04-30T18:42:24.658Z,16.4
2019-04-30T18:47:31.899Z,11.6
2019-04-30T18:52:32.148Z,11.6
2019-04-30T18:57:37.106Z,9.1
2019-04-30T19:02:42.448Z,7.4
2019-04-30T19:07:48.809Z,7.1
2019-04-30T19:12:56.197Z,6.3
2019-04-30T19:18:06.661Z,6.4
2019-04-30T19:23:11.998Z,6.3
2019-04-30T19:28:18.684Z,7
2019-04-30T19:33:24.379Z,6.5
2019-04-30T19:38:29.369Z,7.1
2019-04-30T19:43:34.604Z,6.2
2019-04-30T19:48:41.719Z,6.1
2019-04-30T19:53:48.759Z,6.8
2019-04-30T19:59:01.923Z,6.4
2019-04-30T20:04:02.409Z,6.1
2019-04-30T20:09:08.910Z,6.3
2019-04-30T20:14:14.752Z,6.6
2019-04-30T20:19:21.530Z,5.3
2019-04-30T20:24:26.707Z,4.3
2019-04-30T20:29:34.211Z,5.8
2019-04-30T20:34:39.352Z,4.4
2019-04-30T20:39:44.319Z,4.9
2019-04-30T20:44:49.504Z,4.5
2019-04-30T20:49:54.448Z,4
2019-04-30T20:54:59.602Z,4
2019-04-30T21:00:04.896Z,4.6
2019-04-30T21:05:10.022Z,6.7
2019-04-30T21:10:19.794Z,7.2
2019-04-30T21:15:25.408Z,8.2
2019-04-30T21:20:32.559Z,8.9
2019-04-30T21:25:38.680Z,9.6
2019-04-30T21:30:44.163Z,10.8
2019-04-30T21:35:50.679Z,11.9
2019-04-30T21:40:58.424Z,12
2019-04-30T21:45:56.454Z,11.9
2019-04-30T21:51:03.732Z,12
2019-04-30T21:56:11.711Z,12.8
2019-04-30T22:01:16.901Z,14.3
2019-04-30T22:06:22.390Z,12.8
2019-04-30T22:11:29.397Z,12.8
2019-04-30T22:16:35.333Z,12.8
2019-04-30T22:21:42.408Z,12.8
2019-04-30T22:26:47.610Z,13.1
2019-04-30T22:31:52.715Z,12.8
2019-04-30T22:36:58.607Z,13.1
2019-04-30T22:42:03.949Z,12.8
2019-04-30T22:47:09.178Z,14.5
2019-04-30T22:52:09.213Z,12.4
2019-04-30T22:57:14.330Z,13.1
2019-04-30T23:02:19.492Z,12.8
2019-04-30T23:07:24.515Z,13.1
2019-04-30T23:12:29.498Z,12.8
2019-04-30T23:17:34.672Z,12.1
2019-04-30T23:22:39.882Z,12.2
2019-04-30T23:27:45.102Z,11.9
2019-04-30T23:32:50.174Z,11.5
2019-04-30T23:37:55.442Z,11.6
2019-04-30T23:43:00.572Z,10.8
2019-04-30T23:48:05.806Z,10.7
2019-04-30T23:53:10.965Z,9.6
2019-04-30T23:58:16.400Z,9.7
